sensor_id;sensor_type;location;lat;lon;timestamp;P1;durP1;ratioP1;P2;durP2;ratioP2
38262;SDS011;24054;50.128;19.730;2023-04-06T00:01:17;6.88;;;4.78;;
38262;SDS011;24054;50.128;19.730;2023-04-06T00:03:43;7.18;;;4.97;;
38262;SDS011;24054;50.128;19.730;2023-04-06T00:06:12;7.78;;;4.72;;
38262;SDS011;24054;50.128;19.730;2023-04-06T00:08:39;7.10;;;4.85;;
38262;SDS011;24054;50.128;19.730;2023-04-06T00:11:06;7.78;;;5.40;;
38262;SDS011;24054;50.128;19.730;2023-04-06T00:13:33;6.90;;;5.03;;
38262;SDS011;24054;50.128;19.730;2023-04-06T00:16:00;6.55;;;4.13;;
38262;SDS011;24054;50.128;19.730;2023-04-06T00:18:27;7.18;;;4.63;;
38262;SDS011;24054;50.128;19.730;2023-04-06T00:20:54;7.32;;;5.07;;
38262;SDS011;24054;50.128;19.730;2023-04-06T00:23:22;7.50;;;5.20;;
38262;SDS011;24054;50.128;19.730;2023-04-06T00:25:49;7.18;;;4.80;;
38262;SDS011;24054;50.128;19.730;2023-04-06T00:28:16;7.97;;;5.00;;
38262;SDS011;24054;50.128;19.730;2023-04-06T00:30:50;7.60;;;4.95;;
38262;SDS011;24054;50.128;19.730;2023-04-06T00:33:18;7.65;;;5.00;;
38262;SDS011;24054;50.128;19.730;2023-04-06T00:35:45;7.28;;;4.82;;
38262;SDS011;24054;50.128;19.730;2023-04-06T00:38:12;6.20;;;4.65;;
38262;SDS011;24054;50.128;19.730;2023-04-06T00:40:41;6.93;;;4.53;;
38262;SDS011;24054;50.128;19.730;2023-04-06T00:43:09;7.13;;;4.85;;
38262;SDS011;24054;50.128;19.730;2023-04-06T00:45:37;6.20;;;4.70;;
38262;SDS011;24054;50.128;19.730;2023-04-06T00:48:05;7.22;;;5.07;;
38262;SDS011;24054;50.128;19.730;2023-04-06T00:50:32;6.53;;;4.78;;
38262;SDS011;24054;50.128;19.730;2023-04-06T00:52:59;7.20;;;4.75;;
38262;SDS011;24054;50.128;19.730;2023-04-06T00:55:27;6.43;;;4.63;;
38262;SDS011;24054;50.128;19.730;2023-04-06T00:57:55;7.35;;;4.60;;
38262;SDS011;24054;50.128;19.730;2023-04-06T01:00:24;6.72;;;4.53;;
38262;SDS011;24054;50.128;19.730;2023-04-06T01:02:52;6.68;;;4.80;;
38262;SDS011;24054;50.128;19.730;2023-04-06T01:05:19;5.78;;;4.20;;
38262;SDS011;24054;50.128;19.730;2023-04-06T01:07:46;6.88;;;4.78;;
38262;SDS011;24054;50.128;19.730;2023-04-06T01:10:21;6.57;;;4.88;;
38262;SDS011;24054;50.128;19.730;2023-04-06T01:12:49;7.82;;;4.50;;
38262;SDS011;24054;50.128;19.730;2023-04-06T01:15:17;5.15;;;4.20;;
38262;SDS011;24054;50.128;19.730;2023-04-06T01:17:45;7.20;;;4.90;;
38262;SDS011;24054;50.128;19.730;2023-04-06T01:20:12;6.65;;;4.28;;
38262;SDS011;24054;50.128;19.730;2023-04-06T01:22:41;6.32;;;4.28;;
38262;SDS011;24054;50.128;19.730;2023-04-06T01:25:08;6.38;;;4.30;;
38262;SDS011;24054;50.128;19.730;2023-04-06T01:27:36;6.05;;;4.68;;
38262;SDS011;24054;50.128;19.730;2023-04-06T01:30:03;7.22;;;4.38;;
38262;SDS011;24054;50.128;19.730;2023-04-06T01:32:31;6.68;;;4.70;;
38262;SDS011;24054;50.128;19.730;2023-04-06T01:34:58;6.35;;;4.65;;
38262;SDS011;24054;50.128;19.730;2023-04-06T01:37:25;6.43;;;4.40;;
38262;SDS011;24054;50.128;19.730;2023-04-06T01:39:53;7.20;;;5.03;;
38262;SDS011;24054;50.128;19.730;2023-04-06T01:42:20;6.45;;;4.72;;
38262;SDS011;24054;50.128;19.730;2023-04-06T01:44:47;6.90;;;4.85;;
38262;SDS011;24054;50.128;19.730;2023-04-06T01:47:14;6.28;;;4.22;;
38262;SDS011;24054;50.128;19.730;2023-04-06T01:49:41;6.95;;;4.65;;
38262;SDS011;24054;50.128;19.730;2023-04-06T01:52:08;6.38;;;4.68;;
38262;SDS011;24054;50.128;19.730;2023-04-06T01:54:35;5.45;;;4.20;;
38262;SDS011;24054;50.128;19.730;2023-04-06T01:57:03;7.28;;;4.60;;
38262;SDS011;24054;50.128;19.730;2023-04-06T01:59:30;6.93;;;4.72;;
38262;SDS011;24054;50.128;19.730;2023-04-06T02:01:57;6.13;;;4.50;;
38262;SDS011;24054;50.128;19.730;2023-04-06T02:04:24;5.43;;;4.30;;
38262;SDS011;24054;50.128;19.730;2023-04-06T02:06:51;6.03;;;4.47;;
38262;SDS011;24054;50.128;19.730;2023-04-06T02:09:18;5.88;;;4.70;;
38262;SDS011;24054;50.128;19.730;2023-04-06T02:11:45;5.55;;;4.70;;
38262;SDS011;24054;50.128;19.730;2023-04-06T02:14:13;7.30;;;4.57;;
38262;SDS011;24054;50.128;19.730;2023-04-06T02:16:40;6.05;;;3.88;;
38262;SDS011;24054;50.128;19.730;2023-04-06T02:19:07;5.95;;;4.40;;
38262;SDS011;24054;50.128;19.730;2023-04-06T02:21:34;5.53;;;4.05;;
38262;SDS011;24054;50.128;19.730;2023-04-06T02:24:01;6.97;;;4.13;;
38262;SDS011;24054;50.128;19.730;2023-04-06T02:26:28;6.88;;;4.82;;
38262;SDS011;24054;50.128;19.730;2023-04-06T02:28:55;6.47;;;4.63;;
38262;SDS011;24054;50.128;19.730;2023-04-06T02:31:25;6.10;;;4.40;;
38262;SDS011;24054;50.128;19.730;2023-04-06T02:33:52;6.47;;;4.53;;
38262;SDS011;24054;50.128;19.730;2023-04-06T02:36:19;6.07;;;4.80;;
38262;SDS011;24054;50.128;19.730;2023-04-06T02:38:46;5.30;;;3.85;;
38262;SDS011;24054;50.128;19.730;2023-04-06T02:41:13;5.90;;;4.10;;
38262;SDS011;24054;50.128;19.730;2023-04-06T02:43:40;5.63;;;4.57;;
38262;SDS011;24054;50.128;19.730;2023-04-06T02:46:07;5.93;;;4.68;;
38262;SDS011;24054;50.128;19.730;2023-04-06T02:48:35;5.28;;;4.40;;
38262;SDS011;24054;50.128;19.730;2023-04-06T02:51:02;6.35;;;4.38;;
38262;SDS011;24054;50.128;19.730;2023-04-06T02:53:29;5.55;;;4.40;;
38262;SDS011;24054;50.128;19.730;2023-04-06T02:55:56;5.53;;;4.35;;
38262;SDS011;24054;50.128;19.730;2023-04-06T02:58:23;7.28;;;4.93;;
38262;SDS011;24054;50.128;19.730;2023-04-06T03:00:50;7.07;;;4.10;;
38262;SDS011;24054;50.128;19.730;2023-04-06T03:03:17;6.15;;;4.45;;
38262;SDS011;24054;50.128;19.730;2023-04-06T03:05:45;5.70;;;4.20;;
38262;SDS011;24054;50.128;19.730;2023-04-06T03:08:12;6.28;;;4.80;;
38262;SDS011;24054;50.128;19.730;2023-04-06T03:10:39;6.28;;;4.45;;
38262;SDS011;24054;50.128;19.730;2023-04-06T03:13:06;5.50;;;4.07;;
38262;SDS011;24054;50.128;19.730;2023-04-06T03:15:33;5.85;;;4.57;;
38262;SDS011;24054;50.128;19.730;2023-04-06T03:18:00;5.60;;;4.25;;
38262;SDS011;24054;50.128;19.730;2023-04-06T03:20:27;6.32;;;4.55;;
38262;SDS011;24054;50.128;19.730;2023-04-06T03:22:55;6.88;;;4.70;;
38262;SDS011;24054;50.128;19.730;2023-04-06T03:25:24;5.68;;;4.70;;
38262;SDS011;24054;50.128;19.730;2023-04-06T03:27:51;5.70;;;4.10;;
38262;SDS011;24054;50.128;19.730;2023-04-06T03:30:18;7.10;;;4.72;;
38262;SDS011;24054;50.128;19.730;2023-04-06T03:32:45;6.50;;;4.53;;
38262;SDS011;24054;50.128;19.730;2023-04-06T03:35:12;6.03;;;4.10;;
38262;SDS011;24054;50.128;19.730;2023-04-06T03:37:39;5.35;;;4.18;;
38262;SDS011;24054;50.128;19.730;2023-04-06T03:40:08;6.82;;;4.50;;
38262;SDS011;24054;50.128;19.730;2023-04-06T03:42:36;6.57;;;4.60;;
38262;SDS011;24054;50.128;19.730;2023-04-06T03:45:03;5.88;;;4.30;;
38262;SDS011;24054;50.128;19.730;2023-04-06T03:47:30;5.78;;;4.38;;
38262;SDS011;24054;50.128;19.730;2023-04-06T03:49:57;5.75;;;4.70;;
38262;SDS011;24054;50.128;19.730;2023-04-06T03:52:24;5.65;;;4.47;;
38262;SDS011;24054;50.128;19.730;2023-04-06T03:54:51;5.78;;;4.38;;
38262;SDS011;24054;50.128;19.730;2023-04-06T03:57:19;6.47;;;5.05;;
38262;SDS011;24054;50.128;19.730;2023-04-06T03:59:46;5.25;;;4.25;;
38262;SDS011;24054;50.128;19.730;2023-04-06T04:02:13;5.97;;;4.63;;
38262;SDS011;24054;50.128;19.730;2023-04-06T04:04:40;5.85;;;4.15;;
38262;SDS011;24054;50.128;19.730;2023-04-06T04:07:07;5.63;;;4.20;;
38262;SDS011;24054;50.128;19.730;2023-04-06T04:09:34;6.85;;;4.55;;
38262;SDS011;24054;50.128;19.730;2023-04-06T04:12:01;5.30;;;4.15;;
38262;SDS011;24054;50.128;19.730;2023-04-06T04:16:59;6.35;;;4.53;;
38262;SDS011;24054;50.128;19.730;2023-04-06T04:19:26;5.22;;;4.22;;
38262;SDS011;24054;50.128;19.730;2023-04-06T04:21:53;7.07;;;4.45;;
38262;SDS011;24054;50.128;19.730;2023-04-06T04:24:20;6.35;;;4.50;;
38262;SDS011;24054;50.128;19.730;2023-04-06T04:26:47;5.57;;;4.60;;
38262;SDS011;24054;50.128;19.730;2023-04-06T04:29:14;6.38;;;4.65;;
38262;SDS011;24054;50.128;19.730;2023-04-06T04:31:43;6.47;;;4.63;;
38262;SDS011;24054;50.128;19.730;2023-04-06T04:34:11;5.50;;;4.13;;
38262;SDS011;24054;50.128;19.730;2023-04-06T04:36:38;5.80;;;4.55;;
38262;SDS011;24054;50.128;19.730;2023-04-06T04:39:07;7.55;;;4.40;;
38262;SDS011;24054;50.128;19.730;2023-04-06T04:41:34;6.93;;;4.68;;
38262;SDS011;24054;50.128;19.730;2023-04-06T04:44:01;5.43;;;4.18;;
38262;SDS011;24054;50.128;19.730;2023-04-06T04:46:28;5.85;;;4.53;;
38262;SDS011;24054;50.128;19.730;2023-04-06T04:48:56;6.97;;;4.93;;
38262;SDS011;24054;50.128;19.730;2023-04-06T04:51:26;7.32;;;5.15;;
38262;SDS011;24054;50.128;19.730;2023-04-06T04:53:52;5.25;;;4.28;;
38262;SDS011;24054;50.128;19.730;2023-04-06T04:56:20;6.40;;;4.85;;
38262;SDS011;24054;50.128;19.730;2023-04-06T04:58:47;7.35;;;5.47;;
38262;SDS011;24054;50.128;19.730;2023-04-06T05:01:14;6.45;;;4.85;;
38262;SDS011;24054;50.128;19.730;2023-04-06T05:03:41;7.82;;;5.05;;
38262;SDS011;24054;50.128;19.730;2023-04-06T05:06:09;7.38;;;5.68;;
38262;SDS011;24054;50.128;19.730;2023-04-06T05:08:36;6.80;;;5.63;;
38262;SDS011;24054;50.128;19.730;2023-04-06T05:11:03;7.63;;;4.90;;
38262;SDS011;24054;50.128;19.730;2023-04-06T05:13:30;7.00;;;4.95;;
38262;SDS011;24054;50.128;19.730;2023-04-06T05:15:57;5.55;;;4.40;;
38262;SDS011;24054;50.128;19.730;2023-04-06T05:18:25;6.53;;;4.43;;
38262;SDS011;24054;50.128;19.730;2023-04-06T05:20:52;6.45;;;4.97;;
38262;SDS011;24054;50.128;19.730;2023-04-06T05:23:20;7.05;;;4.90;;
38262;SDS011;24054;50.128;19.730;2023-04-06T05:25:47;6.88;;;4.60;;
38262;SDS011;24054;50.128;19.730;2023-04-06T05:28:15;5.10;;;4.20;;
38262;SDS011;24054;50.128;19.730;2023-04-06T05:30:42;5.97;;;4.55;;
38262;SDS011;24054;50.128;19.730;2023-04-06T05:33:09;9.55;;;4.70;;
38262;SDS011;24054;50.128;19.730;2023-04-06T05:35:36;5.85;;;3.95;;
38262;SDS011;24054;50.128;19.730;2023-04-06T05:38:07;6.43;;;4.40;;
38262;SDS011;24054;50.128;19.730;2023-04-06T05:43:06;5.40;;;3.88;;
38262;SDS011;24054;50.128;19.730;2023-04-06T05:45:33;6.65;;;3.83;;
38262;SDS011;24054;50.128;19.730;2023-04-06T05:48:01;8.30;;;4.05;;
38262;SDS011;24054;50.128;19.730;2023-04-06T05:50:28;8.02;;;3.90;;
38262;SDS011;24054;50.128;19.730;2023-04-06T05:52:55;7.22;;;4.10;;
38262;SDS011;24054;50.128;19.730;2023-04-06T05:55:22;4.43;;;3.20;;
38262;SDS011;24054;50.128;19.730;2023-04-06T05:57:50;6.93;;;3.58;;
38262;SDS011;24054;50.128;19.730;2023-04-06T06:00:17;4.40;;;3.20;;
38262;SDS011;24054;50.128;19.730;2023-04-06T06:02:45;6.22;;;3.95;;
38262;SDS011;24054;50.128;19.730;2023-04-06T06:05:12;7.53;;;3.40;;
38262;SDS011;24054;50.128;19.730;2023-04-06T06:07:39;7.05;;;3.55;;
38262;SDS011;24054;50.128;19.730;2023-04-06T06:10:07;6.35;;;3.78;;
38262;SDS011;24054;50.128;19.730;2023-04-06T06:12:35;6.85;;;3.53;;
38262;SDS011;24054;50.128;19.730;2023-04-06T06:15:04;7.13;;;3.47;;
38262;SDS011;24054;50.128;19.730;2023-04-06T06:17:32;9.25;;;3.92;;
38262;SDS011;24054;50.128;19.730;2023-04-06T06:19:59;7.07;;;3.88;;
38262;SDS011;24054;50.128;19.730;2023-04-06T06:22:26;5.68;;;3.45;;
38262;SDS011;24054;50.128;19.730;2023-04-06T06:24:53;7.63;;;3.50;;
38262;SDS011;24054;50.128;19.730;2023-04-06T06:27:20;6.75;;;3.38;;
38262;SDS011;24054;50.128;19.730;2023-04-06T06:29:47;5.93;;;3.28;;
38262;SDS011;24054;50.128;19.730;2023-04-06T06:32:15;6.65;;;3.55;;
38262;SDS011;24054;50.128;19.730;2023-04-06T06:34:42;5.32;;;3.28;;
38262;SDS011;24054;50.128;19.730;2023-04-06T06:37:09;4.75;;;3.10;;
38262;SDS011;24054;50.128;19.730;2023-04-06T06:39:36;4.95;;;3.05;;
38262;SDS011;24054;50.128;19.730;2023-04-06T06:42:04;6.88;;;3.25;;
38262;SDS011;24054;50.128;19.730;2023-04-06T06:44:31;6.05;;;3.50;;
38262;SDS011;24054;50.128;19.730;2023-04-06T06:46:58;7.20;;;3.13;;
38262;SDS011;24054;50.128;19.730;2023-04-06T06:49:26;5.18;;;3.33;;
38262;SDS011;24054;50.128;19.730;2023-04-06T06:51:53;10.75;;;3.30;;
38262;SDS011;24054;50.128;19.730;2023-04-06T06:54:21;6.22;;;3.33;;
38262;SDS011;24054;50.128;19.730;2023-04-06T06:56:48;10.18;;;3.28;;
38262;SDS011;24054;50.128;19.730;2023-04-06T06:59:15;9.60;;;3.22;;
38262;SDS011;24054;50.128;19.730;2023-04-06T07:01:42;5.13;;;2.97;;
38262;SDS011;24054;50.128;19.730;2023-04-06T07:04:09;6.55;;;3.40;;
38262;SDS011;24054;50.128;19.730;2023-04-06T07:06:37;9.70;;;3.20;;
38262;SDS011;24054;50.128;19.730;2023-04-06T07:09:08;4.28;;;2.65;;
38262;SDS011;24054;50.128;19.730;2023-04-06T07:11:35;5.32;;;3.17;;
38262;SDS011;24054;50.128;19.730;2023-04-06T07:14:02;3.83;;;2.67;;
38262;SDS011;24054;50.128;19.730;2023-04-06T07:16:29;6.75;;;3.20;;
38262;SDS011;24054;50.128;19.730;2023-04-06T07:18:56;5.60;;;3.03;;
38262;SDS011;24054;50.128;19.730;2023-04-06T07:21:23;5.60;;;2.97;;
38262;SDS011;24054;50.128;19.730;2023-04-06T07:23:55;4.57;;;2.45;;
38262;SDS011;24054;50.128;19.730;2023-04-06T07:26:22;4.15;;;2.65;;
38262;SDS011;24054;50.128;19.730;2023-04-06T07:28:49;5.03;;;2.58;;
38262;SDS011;24054;50.128;19.730;2023-04-06T07:31:16;5.18;;;3.08;;
38262;SDS011;24054;50.128;19.730;2023-04-06T07:33:44;5.03;;;2.85;;
38262;SDS011;24054;50.128;19.730;2023-04-06T07:36:12;5.18;;;2.60;;
38262;SDS011;24054;50.128;19.730;2023-04-06T07:38:39;4.57;;;2.75;;
38262;SDS011;24054;50.128;19.730;2023-04-06T07:41:08;4.13;;;2.72;;
38262;SDS011;24054;50.128;19.730;2023-04-06T07:43:35;7.30;;;2.95;;
38262;SDS011;24054;50.128;19.730;2023-04-06T07:46:03;5.27;;;2.87;;
38262;SDS011;24054;50.128;19.730;2023-04-06T07:48:30;4.05;;;2.60;;
38262;SDS011;24054;50.128;19.730;2023-04-06T07:51:01;4.60;;;2.83;;
38262;SDS011;24054;50.128;19.730;2023-04-06T07:53:28;5.30;;;2.75;;
38262;SDS011;24054;50.128;19.730;2023-04-06T07:55:56;6.60;;;2.65;;
38262;SDS011;24054;50.128;19.730;2023-04-06T07:58:26;5.93;;;2.95;;
38262;SDS011;24054;50.128;19.730;2023-04-06T08:00:53;3.92;;;2.33;;
38262;SDS011;24054;50.128;19.730;2023-04-06T08:03:21;6.78;;;2.88;;
38262;SDS011;24054;50.128;19.730;2023-04-06T08:05:50;5.70;;;2.90;;
38262;SDS011;24054;50.128;19.730;2023-04-06T08:08:18;5.28;;;3.00;;
38262;SDS011;24054;50.128;19.730;2023-04-06T08:10:46;5.18;;;2.75;;
38262;SDS011;24054;50.128;19.730;2023-04-06T08:13:13;3.35;;;2.55;;
38262;SDS011;24054;50.128;19.730;2023-04-06T08:15:42;3.53;;;2.67;;
38262;SDS011;24054;50.128;19.730;2023-04-06T08:20:37;7.93;;;3.20;;
38262;SDS011;24054;50.128;19.730;2023-04-06T08:23:04;5.10;;;2.72;;
38262;SDS011;24054;50.128;19.730;2023-04-06T08:25:31;3.83;;;2.50;;
38262;SDS011;24054;50.128;19.730;2023-04-06T08:30:27;4.75;;;2.30;;
38262;SDS011;24054;50.128;19.730;2023-04-06T08:32:57;3.45;;;1.95;;
38262;SDS011;24054;50.128;19.730;2023-04-06T08:35:26;4.35;;;2.50;;
38262;SDS011;24054;50.128;19.730;2023-04-06T08:37:54;7.15;;;3.53;;
38262;SDS011;24054;50.128;19.730;2023-04-06T08:40:21;3.45;;;2.40;;
38262;SDS011;24054;50.128;19.730;2023-04-06T08:42:49;6.00;;;2.33;;
38262;SDS011;24054;50.128;19.730;2023-04-06T08:45:21;6.00;;;2.70;;
38262;SDS011;24054;50.128;19.730;2023-04-06T08:47:49;4.35;;;2.78;;
38262;SDS011;24054;50.128;19.730;2023-04-06T08:50:19;4.25;;;2.30;;
38262;SDS011;24054;50.128;19.730;2023-04-06T08:52:47;4.68;;;2.50;;
38262;SDS011;24054;50.128;19.730;2023-04-06T08:55:15;5.60;;;2.78;;
38262;SDS011;24054;50.128;19.730;2023-04-06T08:57:42;4.03;;;2.78;;
38262;SDS011;24054;50.128;19.730;2023-04-06T09:02:39;5.67;;;2.37;;
38262;SDS011;24054;50.128;19.730;2023-04-06T09:05:08;3.80;;;2.42;;
38262;SDS011;24054;50.128;19.730;2023-04-06T09:07:37;5.13;;;2.55;;
38262;SDS011;24054;50.128;19.730;2023-04-06T09:10:05;5.45;;;2.25;;
38262;SDS011;24054;50.128;19.730;2023-04-06T09:12:33;3.33;;;2.05;;
38262;SDS011;24054;50.128;19.730;2023-04-06T09:15:01;3.20;;;2.10;;
38262;SDS011;24054;50.128;19.730;2023-04-06T09:17:28;3.92;;;1.85;;
38262;SDS011;24054;50.128;19.730;2023-04-06T09:19:58;3.67;;;2.13;;
38262;SDS011;24054;50.128;19.730;2023-04-06T09:22:35;6.90;;;2.00;;
38262;SDS011;24054;50.128;19.730;2023-04-06T09:25:05;3.60;;;2.20;;
38262;SDS011;24054;50.128;19.730;2023-04-06T09:27:33;4.43;;;2.38;;
38262;SDS011;24054;50.128;19.730;2023-04-06T09:30:02;3.00;;;1.98;;
38262;SDS011;24054;50.128;19.730;2023-04-06T09:32:45;3.92;;;2.30;;
38262;SDS011;24054;50.128;19.730;2023-04-06T09:35:14;2.88;;;2.13;;
38262;SDS011;24054;50.128;19.730;2023-04-06T09:37:43;4.05;;;2.20;;
38262;SDS011;24054;50.128;19.730;2023-04-06T09:40:11;3.90;;;2.10;;
38262;SDS011;24054;50.128;19.730;2023-04-06T09:42:40;4.07;;;2.30;;
38262;SDS011;24054;50.128;19.730;2023-04-06T09:47:35;4.43;;;2.30;;
38262;SDS011;24054;50.128;19.730;2023-04-06T09:50:05;4.30;;;2.20;;
38262;SDS011;24054;50.128;19.730;2023-04-06T09:52:37;3.65;;;2.20;;
38262;SDS011;24054;50.128;19.730;2023-04-06T09:55:07;4.45;;;2.90;;
38262;SDS011;24054;50.128;19.730;2023-04-06T09:57:37;6.28;;;2.50;;
38262;SDS011;24054;50.128;19.730;2023-04-06T10:00:12;5.45;;;2.53;;
38262;SDS011;24054;50.128;19.730;2023-04-06T10:02:45;4.20;;;2.00;;
38262;SDS011;24054;50.128;19.730;2023-04-06T10:05:19;3.92;;;2.05;;
38262;SDS011;24054;50.128;19.730;2023-04-06T10:07:49;4.00;;;2.35;;
38262;SDS011;24054;50.128;19.730;2023-04-06T10:10:21;17.27;;;2.42;;
38262;SDS011;24054;50.128;19.730;2023-04-06T10:12:49;6.03;;;2.22;;
38262;SDS011;24054;50.128;19.730;2023-04-06T10:15:16;3.10;;;2.45;;
38262;SDS011;24054;50.128;19.730;2023-04-06T10:17:44;3.22;;;2.25;;
38262;SDS011;24054;50.128;19.730;2023-04-06T10:20:12;4.25;;;2.20;;
38262;SDS011;24054;50.128;19.730;2023-04-06T10:22:49;6.10;;;2.65;;
38262;SDS011;24054;50.128;19.730;2023-04-06T10:25:27;5.88;;;2.30;;
38262;SDS011;24054;50.128;19.730;2023-04-06T10:28:01;5.35;;;2.47;;
38262;SDS011;24054;50.128;19.730;2023-04-06T10:30:30;3.90;;;2.50;;
38262;SDS011;24054;50.128;19.730;2023-04-06T10:32:59;5.10;;;2.13;;
38262;SDS011;24054;50.128;19.730;2023-04-06T10:35:36;4.55;;;2.05;;
38262;SDS011;24054;50.128;19.730;2023-04-06T10:38:04;4.55;;;2.10;;
38262;SDS011;24054;50.128;19.730;2023-04-06T10:40:35;4.88;;;1.98;;
38262;SDS011;24054;50.128;19.730;2023-04-06T10:43:07;4.88;;;2.63;;
38262;SDS011;24054;50.128;19.730;2023-04-06T10:45:35;2.92;;;2.53;;
38262;SDS011;24054;50.128;19.730;2023-04-06T10:48:12;3.88;;;2.45;;
38262;SDS011;24054;50.128;19.730;2023-04-06T10:50:40;5.97;;;2.55;;
38262;SDS011;24054;50.128;19.730;2023-04-06T10:53:08;5.03;;;2.53;;
38262;SDS011;24054;50.128;19.730;2023-04-06T10:55:36;6.75;;;2.50;;
38262;SDS011;24054;50.128;19.730;2023-04-06T10:58:06;5.18;;;2.40;;
38262;SDS011;24054;50.128;19.730;2023-04-06T11:00:34;7.10;;;3.00;;
38262;SDS011;24054;50.128;19.730;2023-04-06T11:03:01;7.00;;;3.00;;
38262;SDS011;24054;50.128;19.730;2023-04-06T11:05:28;9.20;;;2.80;;
38262;SDS011;24054;50.128;19.730;2023-04-06T11:07:56;6.20;;;2.50;;
38262;SDS011;24054;50.128;19.730;2023-04-06T11:10:23;31.48;;;3.60;;
38262;SDS011;24054;50.128;19.730;2023-04-06T11:12:55;5.22;;;2.38;;
38262;SDS011;24054;50.128;19.730;2023-04-06T11:15:22;8.73;;;2.38;;
38262;SDS011;24054;50.128;19.730;2023-04-06T11:17:52;7.18;;;2.55;;
38262;SDS011;24054;50.128;19.730;2023-04-06T11:20:19;7.35;;;2.72;;
38262;SDS011;24054;50.128;19.730;2023-04-06T11:22:50;7.82;;;2.53;;
38262;SDS011;24054;50.128;19.730;2023-04-06T11:25:18;6.35;;;2.35;;
38262;SDS011;24054;50.128;19.730;2023-04-06T11:27:46;5.55;;;2.60;;
38262;SDS011;24054;50.128;19.730;2023-04-06T11:30:15;23.63;;;2.50;;
38262;SDS011;24054;50.128;19.730;2023-04-06T11:32:42;7.43;;;2.58;;
38262;SDS011;24054;50.128;19.730;2023-04-06T11:35:10;3.78;;;2.38;;
38262;SDS011;24054;50.128;19.730;2023-04-06T11:37:38;9.02;;;2.30;;
38262;SDS011;24054;50.128;19.730;2023-04-06T11:40:07;4.25;;;2.28;;
38262;SDS011;24054;50.128;19.730;2023-04-06T11:42:35;5.38;;;2.65;;
38262;SDS011;24054;50.128;19.730;2023-04-06T11:45:02;6.60;;;2.67;;
38262;SDS011;24054;50.128;19.730;2023-04-06T11:47:35;6.45;;;2.67;;
38262;SDS011;24054;50.128;19.730;2023-04-06T11:50:06;7.22;;;2.80;;
38262;SDS011;24054;50.128;19.730;2023-04-06T11:52:34;12.25;;;2.60;;
38262;SDS011;24054;50.128;19.730;2023-04-06T11:55:10;5.05;;;2.55;;
38262;SDS011;24054;50.128;19.730;2023-04-06T11:57:42;7.97;;;2.67;;
38262;SDS011;24054;50.128;19.730;2023-04-06T12:00:10;6.05;;;2.65;;
38262;SDS011;24054;50.128;19.730;2023-04-06T12:02:39;4.57;;;3.17;;
38262;SDS011;24054;50.128;19.730;2023-04-06T12:05:11;5.78;;;2.80;;
38262;SDS011;24054;50.128;19.730;2023-04-06T12:07:41;5.75;;;2.45;;
38262;SDS011;24054;50.128;19.730;2023-04-06T12:10:09;5.38;;;2.60;;
38262;SDS011;24054;50.128;19.730;2023-04-06T12:12:36;12.38;;;2.92;;
38262;SDS011;24054;50.128;19.730;2023-04-06T12:15:06;4.72;;;2.47;;
38262;SDS011;24054;50.128;19.730;2023-04-06T12:17:34;5.95;;;2.47;;
38262;SDS011;24054;50.128;19.730;2023-04-06T12:20:03;6.07;;;2.47;;
38262;SDS011;24054;50.128;19.730;2023-04-06T12:22:30;6.68;;;2.38;;
38262;SDS011;24054;50.128;19.730;2023-04-06T12:24:57;4.47;;;3.03;;
38262;SDS011;24054;50.128;19.730;2023-04-06T12:27:24;2.97;;;2.10;;
38262;SDS011;24054;50.128;19.730;2023-04-06T12:29:51;5.15;;;2.53;;
38262;SDS011;24054;50.128;19.730;2023-04-06T12:32:21;10.63;;;2.50;;
38262;SDS011;24054;50.128;19.730;2023-04-06T12:34:49;7.75;;;2.88;;
38262;SDS011;24054;50.128;19.730;2023-04-06T12:37:18;5.90;;;2.53;;
38262;SDS011;24054;50.128;19.730;2023-04-06T12:39:46;5.80;;;2.60;;
38262;SDS011;24054;50.128;19.730;2023-04-06T12:42:13;6.72;;;2.60;;
38262;SDS011;24054;50.128;19.730;2023-04-06T12:44:41;6.95;;;2.92;;
38262;SDS011;24054;50.128;19.730;2023-04-06T12:47:08;4.35;;;2.55;;
38262;SDS011;24054;50.128;19.730;2023-04-06T12:49:36;4.28;;;2.47;;
38262;SDS011;24054;50.128;19.730;2023-04-06T12:52:06;3.55;;;2.30;;
38262;SDS011;24054;50.128;19.730;2023-04-06T12:54:34;9.57;;;2.45;;
38262;SDS011;24054;50.128;19.730;2023-04-06T12:57:02;4.60;;;2.40;;
38262;SDS011;24054;50.128;19.730;2023-04-06T12:59:31;5.47;;;2.63;;
38262;SDS011;24054;50.128;19.730;2023-04-06T13:04:27;4.05;;;2.50;;
38262;SDS011;24054;50.128;19.730;2023-04-06T13:06:54;4.63;;;2.55;;
38262;SDS011;24054;50.128;19.730;2023-04-06T13:09:21;3.15;;;2.35;;
38262;SDS011;24054;50.128;19.730;2023-04-06T13:11:49;5.25;;;2.75;;
38262;SDS011;24054;50.128;19.730;2023-04-06T13:14:17;4.00;;;2.60;;
38262;SDS011;24054;50.128;19.730;2023-04-06T13:16:44;5.13;;;2.70;;
38262;SDS011;24054;50.128;19.730;2023-04-06T13:19:11;2.88;;;2.10;;
38262;SDS011;24054;50.128;19.730;2023-04-06T13:21:38;4.53;;;2.60;;
38262;SDS011;24054;50.128;19.730;2023-04-06T13:24:05;3.90;;;2.40;;
38262;SDS011;24054;50.128;19.730;2023-04-06T13:26:32;3.75;;;2.33;;
38262;SDS011;24054;50.128;19.730;2023-04-06T13:29:02;3.47;;;2.47;;
38262;SDS011;24054;50.128;19.730;2023-04-06T13:31:30;5.68;;;2.70;;
38262;SDS011;24054;50.128;19.730;2023-04-06T13:33:57;8.07;;;2.90;;
38262;SDS011;24054;50.128;19.730;2023-04-06T13:36:24;6.65;;;2.60;;
38262;SDS011;24054;50.128;19.730;2023-04-06T13:38:52;6.30;;;2.80;;
38262;SDS011;24054;50.128;19.730;2023-04-06T13:41:21;6.03;;;2.43;;
38262;SDS011;24054;50.128;19.730;2023-04-06T13:43:48;6.18;;;2.78;;
38262;SDS011;24054;50.128;19.730;2023-04-06T13:46:17;7.03;;;2.70;;
38262;SDS011;24054;50.128;19.730;2023-04-06T13:48:45;8.05;;;3.03;;
38262;SDS011;24054;50.128;19.730;2023-04-06T13:51:13;5.57;;;2.47;;
38262;SDS011;24054;50.128;19.730;2023-04-06T13:53:40;10.37;;;2.80;;
38262;SDS011;24054;50.128;19.730;2023-04-06T13:56:08;4.95;;;3.13;;
38262;SDS011;24054;50.128;19.730;2023-04-06T13:58:35;4.13;;;2.42;;
38262;SDS011;24054;50.128;19.730;2023-04-06T14:01:03;3.53;;;2.65;;
38262;SDS011;24054;50.128;19.730;2023-04-06T14:03:33;5.28;;;2.33;;
38262;SDS011;24054;50.128;19.730;2023-04-06T14:08:27;5.50;;;2.40;;
38262;SDS011;24054;50.128;19.730;2023-04-06T14:10:55;9.15;;;2.67;;
38262;SDS011;24054;50.128;19.730;2023-04-06T14:13:22;5.63;;;2.38;;
38262;SDS011;24054;50.128;19.730;2023-04-06T14:15:54;5.05;;;2.25;;
38262;SDS011;24054;50.128;19.730;2023-04-06T14:18:22;7.50;;;2.63;;
38262;SDS011;24054;50.128;19.730;2023-04-06T14:20:57;5.35;;;2.40;;
38262;SDS011;24054;50.128;19.730;2023-04-06T14:23:24;4.43;;;2.50;;
38262;SDS011;24054;50.128;19.730;2023-04-06T14:25:51;3.38;;;2.20;;
38262;SDS011;24054;50.128;19.730;2023-04-06T14:28:27;7.05;;;2.60;;
38262;SDS011;24054;50.128;19.730;2023-04-06T14:30:54;5.72;;;2.60;;
38262;SDS011;24054;50.128;19.730;2023-04-06T14:33:21;5.25;;;2.08;;
38262;SDS011;24054;50.128;19.730;2023-04-06T14:35:51;3.75;;;2.10;;
38262;SDS011;24054;50.128;19.730;2023-04-06T14:38:19;3.78;;;2.70;;
38262;SDS011;24054;50.128;19.730;2023-04-06T14:40:46;5.47;;;2.40;;
38262;SDS011;24054;50.128;19.730;2023-04-06T14:43:13;3.25;;;2.47;;
38262;SDS011;24054;50.128;19.730;2023-04-06T14:45:41;3.00;;;2.20;;
38262;SDS011;24054;50.128;19.730;2023-04-06T14:48:08;7.13;;;2.10;;
38262;SDS011;24054;50.128;19.730;2023-04-06T14:50:37;6.68;;;2.42;;
38262;SDS011;24054;50.128;19.730;2023-04-06T14:53:04;5.80;;;2.35;;
38262;SDS011;24054;50.128;19.730;2023-04-06T14:55:33;3.92;;;2.22;;
38262;SDS011;24054;50.128;19.730;2023-04-06T14:58:07;3.28;;;2.05;;